CST,Max TemperatureF,Mean TemperatureF,Min TemperatureF,Max Dew PointF,MeanDew PointF,Min DewpointF,Max Humidity, Mean Humidity, Min Humidity, Max Sea Level PressureIn, Mean Sea Level PressureIn, Min Sea Level PressureIn, Max VisibilityMiles, Mean VisibilityMiles, Min VisibilityMiles, Max Wind SpeedMPH, Mean Wind SpeedMPH, Max Gust SpeedMPH,PrecipitationIn, CloudCover, Events, WindDirDegrees
2013-11-1,45,38,28,37,32,26,100,82,63,29.91,29.67,29.42,10,8,5,18,8,30,0.00,4,,319
2013-11-2,48,34,21,34,26,19,100,87,54,30.08,30.01,29.93,10,6,0,9,3,,0.00,1,Fog,258
2013-11-3,52,41,30,33,31,30,96,67,44,30.06,29.90,29.78,10,10,10,28,13,38,0.00,2,,144
2013-11-4,46,36,26,36,32,23,100,82,61,30.10,29.85,29.73,10,10,4,21,13,28,0.09,6,Rain,226
2013-11-5,32,28,23,26,22,20,89,80,66,30.25,30.18,30.12,10,10,10,10,4,,0.00,4,,255
2013-11-6,36,26,17,23,17,14,89,70,46,30.19,30.13,30.11,10,10,10,9,5,,0.00,3,,315
2013-11-7,34,26,18,23,20,15,89,77,50,30.25,30.20,30.14,10,10,8,14,3,,0.00,4,,276
2013-11-8,37,28,19,32,27,17,100,84,57,30.17,29.78,29.56,10,6,0,29,8,39,0.02,7,Snow,128
2013-11-9,34,33,32,34,30,26,100,90,75,30.26,29.86,29.58,10,7,2,23,11,34,0.01,8,Rain-Snow,293
2013-11-10,37,28,17,28,23,8,93,78,65,30.31,30.22,30.10,10,9,2,22,12,30,0.00,5,Snow,285
2013-11-11,15,10,6,8,4,2,83,71,58,30.80,30.55,30.27,10,10,4,20,15,25,0.00,5,Snow,337
2013-11-12,30,16,3,12,7,1,88,66,38,30.79,30.62,30.31,10,10,10,14,6,,0.00,0,,211
2013-11-13,51,35,19,33,25,12,89,74,48,30.28,29.94,29.79,10,10,10,16,8,,0.00,0,,228
2013-11-14,46,37,28,34,31,27,100,84,58,29.82,29.80,29.76,10,10,8,10,4,,0.00,4,,271
2013-11-15,64,46,27,36,30,22,96,61,31,29.81,29.70,29.48,10,5,0,15,7,,0.00,2,Fog-Rain,202
2013-11-16,41,40,39,41,40,39,100,99,96,29.45,29.32,29.24,10,4,0,15,10,18,0.05,7,Fog-Rain,126
2013-11-17,39,31,23,39,30,18,100,92,81,29.87,29.49,29.24,10,9,0,30,12,40,0.04,8,Fog-Rain,303
2013-11-18,24,20,16,18,16,14,92,82,74,30.26,30.12,29.83,10,10,10,26,16,33,0.00,6,,294
2013-11-19,43,30,18,31,23,15,89,73,60,30.25,29.96,29.73,10,10,10,25,13,32,0.00,0,,147
2013-11-20,46,38,30,30,29,28,92,70,52,30.06,29.87,29.73,10,9,6,16,11,24,0.00,2,,159
2013-11-21,30,18,6,30,13,3,100,79,63,30.63,30.37,30.03,10,9,5,20,14,26,0.00,5,Snow,330
2013-11-22,19,10,0,12,4,-4,92,78,62,30.79,30.58,30.42,10,8,2,20,10,25,0.00,3,Snow,289
2013-11-23,10,2,-6,-1,-5,-10,87,76,54,30.93,30.84,30.70,10,10,10,12,7,,0.00,0,,303
2013-11-24,37,20,3,24,11,-1,87,65,43,30.65,30.17,29.81,10,10,6,21,12,28,0.00,2,,189
2013-11-25,34,28,19,26,22,14,85,76,67,30.12,29.95,29.75,10,10,4,24,14,33,0.00,8,Snow,298
2013-11-26,19,10,1,15,5,-2,91,77,62,30.48,30.29,30.05,10,9,2,22,16,31,0.00,6,Snow,315
2013-11-27,18,8,0,10,5,-6,92,80,65,30.45,30.22,30.04,10,9,2,16,7,,0.00,6,Snow,151
2013-11-28,19,11,3,13,8,0,84,75,57,30.53,30.34,30.12,10,8,2,16,7,23,0.00,5,Snow,332
2013-11-29,28,14,1,17,11,-4,88,74,58,30.53,30.31,30.06,10,10,10,22,8,31,0.00,2,,150
2013-11-30,26,22,17,20,19,15,100,86,78,30.24,30.13,30.04,10,9,5,13,6,,0.00,5,,331